sensor_id;sensor_type;location;lat;lon;timestamp;P1;durP1;ratioP1;P2;durP2;ratioP2
17595;SDS011;8916;47.086;15.920;2024-02-23T00:00:11;0.65;;;0.43;;
17595;SDS011;8916;47.086;15.920;2024-02-23T00:02:41;0.52;;;0.50;;
17595;SDS011;8916;47.086;15.920;2024-02-23T00:05:10;0.75;;;0.50;;
17595;SDS011;8916;47.086;15.920;2024-02-23T00:07:40;0.70;;;0.57;;
17595;SDS011;8916;47.086;15.920;2024-02-23T00:10:09;0.40;;;0.38;;
17595;SDS011;8916;47.086;15.920;2024-02-23T00:12:38;0.50;;;0.50;;
17595;SDS011;8916;47.086;15.920;2024-02-23T00:15:07;0.50;;;0.50;;
17595;SDS011;8916;47.086;15.920;2024-02-23T00:17:37;0.93;;;0.52;;
17595;SDS011;8916;47.086;15.920;2024-02-23T00:20:08;1.63;;;0.50;;
17595;SDS011;8916;47.086;15.920;2024-02-23T00:22:40;0.45;;;0.43;;
17595;SDS011;8916;47.086;15.920;2024-02-23T00:25:09;0.68;;;0.40;;
17595;SDS011;8916;47.086;15.920;2024-02-23T00:27:38;1.77;;;0.40;;
17595;SDS011;8916;47.086;15.920;2024-02-23T00:30:09;0.57;;;0.57;;
17595;SDS011;8916;47.086;15.920;2024-02-23T00:32:39;0.30;;;0.30;;
17595;SDS011;8916;47.086;15.920;2024-02-23T00:35:08;0.77;;;0.52;;
17595;SDS011;8916;47.086;15.920;2024-02-23T00:37:37;0.60;;;0.60;;
17595;SDS011;8916;47.086;15.920;2024-02-23T00:40:08;0.40;;;0.40;;
17595;SDS011;8916;47.086;15.920;2024-02-23T00:42:39;2.75;;;0.55;;
17595;SDS011;8916;47.086;15.920;2024-02-23T00:45:08;0.55;;;0.43;;
17595;SDS011;8916;47.086;15.920;2024-02-23T00:47:37;0.57;;;0.45;;
17595;SDS011;8916;47.086;15.920;2024-02-23T00:50:06;0.30;;;0.30;;
17595;SDS011;8916;47.086;15.920;2024-02-23T00:52:36;0.85;;;0.38;;
17595;SDS011;8916;47.086;15.920;2024-02-23T00:55:05;1.23;;;0.60;;
17595;SDS011;8916;47.086;15.920;2024-02-23T00:57:37;1.45;;;0.60;;
17595;SDS011;8916;47.086;15.920;2024-02-23T01:00:07;0.65;;;0.50;;
17595;SDS011;8916;47.086;15.920;2024-02-23T01:02:37;0.47;;;0.35;;
17595;SDS011;8916;47.086;15.920;2024-02-23T01:05:07;0.55;;;0.32;;
17595;SDS011;8916;47.086;15.920;2024-02-23T01:07:38;0.82;;;0.50;;
17595;SDS011;8916;47.086;15.920;2024-02-23T01:10:08;0.73;;;0.50;;
17595;SDS011;8916;47.086;15.920;2024-02-23T01:12:37;2.42;;;0.82;;
17595;SDS011;8916;47.086;15.920;2024-02-23T01:15:06;0.57;;;0.57;;
17595;SDS011;8916;47.086;15.920;2024-02-23T01:17:36;1.00;;;0.60;;
17595;SDS011;8916;47.086;15.920;2024-02-23T01:20:06;0.80;;;0.40;;
17595;SDS011;8916;47.086;15.920;2024-02-23T01:22:36;0.63;;;0.40;;
17595;SDS011;8916;47.086;15.920;2024-02-23T01:25:05;2.22;;;0.60;;
17595;SDS011;8916;47.086;15.920;2024-02-23T01:27:36;0.98;;;0.40;;
17595;SDS011;8916;47.086;15.920;2024-02-23T01:30:06;0.32;;;0.32;;
17595;SDS011;8916;47.086;15.920;2024-02-23T01:32:36;0.43;;;0.30;;
17595;SDS011;8916;47.086;15.920;2024-02-23T01:35:07;0.40;;;0.40;;
17595;SDS011;8916;47.086;15.920;2024-02-23T01:37:36;0.35;;;0.35;;
17595;SDS011;8916;47.086;15.920;2024-02-23T01:40:06;0.95;;;0.60;;
17595;SDS011;8916;47.086;15.920;2024-02-23T01:42:37;0.40;;;0.40;;
17595;SDS011;8916;47.086;15.920;2024-02-23T01:45:06;0.57;;;0.40;;
17595;SDS011;8916;47.086;15.920;2024-02-23T01:47:36;0.32;;;0.30;;
17595;SDS011;8916;47.086;15.920;2024-02-23T01:50:06;0.60;;;0.40;;
17595;SDS011;8916;47.086;15.920;2024-02-23T01:52:36;0.63;;;0.50;;
17595;SDS011;8916;47.086;15.920;2024-02-23T01:55:06;0.30;;;0.30;;
17595;SDS011;8916;47.086;15.920;2024-02-23T01:57:37;0.65;;;0.45;;
17595;SDS011;8916;47.086;15.920;2024-02-23T02:00:17;0.30;;;0.30;;
17595;SDS011;8916;47.086;15.920;2024-02-23T02:02:54;0.50;;;0.40;;
17595;SDS011;8916;47.086;15.920;2024-02-23T02:05:24;0.40;;;0.25;;
17595;SDS011;8916;47.086;15.920;2024-02-23T02:07:53;0.38;;;0.30;;
17595;SDS011;8916;47.086;15.920;2024-02-23T02:10:26;0.73;;;0.30;;
17595;SDS011;8916;47.086;15.920;2024-02-23T02:13:01;0.63;;;0.40;;
17595;SDS011;8916;47.086;15.920;2024-02-23T02:15:31;0.30;;;0.30;;
17595;SDS011;8916;47.086;15.920;2024-02-23T02:18:00;0.30;;;0.30;;
17595;SDS011;8916;47.086;15.920;2024-02-23T02:20:31;0.73;;;0.50;;
17595;SDS011;8916;47.086;15.920;2024-02-23T02:23:03;1.42;;;0.73;;
17595;SDS011;8916;47.086;15.920;2024-02-23T02:25:34;1.10;;;0.45;;
17595;SDS011;8916;47.086;15.920;2024-02-23T02:28:06;1.65;;;0.40;;
17595;SDS011;8916;47.086;15.920;2024-02-23T02:30:36;0.80;;;0.20;;
17595;SDS011;8916;47.086;15.920;2024-02-23T02:33:06;0.52;;;0.52;;
17595;SDS011;8916;47.086;15.920;2024-02-23T02:35:35;0.30;;;0.30;;
17595;SDS011;8916;47.086;15.920;2024-02-23T02:38:04;0.82;;;0.40;;
17595;SDS011;8916;47.086;15.920;2024-02-23T02:40:33;0.63;;;0.45;;
17595;SDS011;8916;47.086;15.920;2024-02-23T02:43:02;0.22;;;0.22;;
17595;SDS011;8916;47.086;15.920;2024-02-23T02:45:33;0.98;;;0.68;;
17595;SDS011;8916;47.086;15.920;2024-02-23T02:48:03;0.40;;;0.40;;
17595;SDS011;8916;47.086;15.920;2024-02-23T02:50:32;0.30;;;0.30;;
17595;SDS011;8916;47.086;15.920;2024-02-23T02:53:01;1.02;;;0.60;;
17595;SDS011;8916;47.086;15.920;2024-02-23T02:55:30;0.22;;;0.22;;
17595;SDS011;8916;47.086;15.920;2024-02-23T02:57:59;0.57;;;0.57;;
17595;SDS011;8916;47.086;15.920;2024-02-23T03:00:28;1.00;;;0.40;;
17595;SDS011;8916;47.086;15.920;2024-02-23T03:02:59;3.83;;;0.70;;
17595;SDS011;8916;47.086;15.920;2024-02-23T03:05:28;1.08;;;0.70;;
17595;SDS011;8916;47.086;15.920;2024-02-23T03:07:58;0.70;;;0.47;;
17595;SDS011;8916;47.086;15.920;2024-02-23T03:10:27;2.08;;;0.65;;
17595;SDS011;8916;47.086;15.920;2024-02-23T03:12:56;3.78;;;0.70;;
17595;SDS011;8916;47.086;15.920;2024-02-23T03:15:25;2.05;;;1.02;;
17595;SDS011;8916;47.086;15.920;2024-02-23T03:17:55;3.20;;;0.70;;
17595;SDS011;8916;47.086;15.920;2024-02-23T03:20:26;2.75;;;0.73;;
17595;SDS011;8916;47.086;15.920;2024-02-23T03:22:54;1.33;;;0.60;;
17595;SDS011;8916;47.086;15.920;2024-02-23T03:25:23;2.80;;;0.85;;
17595;SDS011;8916;47.086;15.920;2024-02-23T03:27:52;2.70;;;1.10;;
17595;SDS011;8916;47.086;15.920;2024-02-23T03:30:21;6.00;;;1.02;;
17595;SDS011;8916;47.086;15.920;2024-02-23T03:32:51;1.42;;;0.73;;
17595;SDS011;8916;47.086;15.920;2024-02-23T03:35:19;2.72;;;1.05;;
17595;SDS011;8916;47.086;15.920;2024-02-23T03:37:50;1.92;;;0.90;;
17595;SDS011;8916;47.086;15.920;2024-02-23T03:40:19;4.18;;;0.93;;
17595;SDS011;8916;47.086;15.920;2024-02-23T03:42:48;2.83;;;1.40;;
17595;SDS011;8916;47.086;15.920;2024-02-23T03:45:17;6.65;;;2.17;;
17595;SDS011;8916;47.086;15.920;2024-02-23T03:47:46;9.63;;;3.58;;
17595;SDS011;8916;47.086;15.920;2024-02-23T03:50:15;8.77;;;3.67;;
17595;SDS011;8916;47.086;15.920;2024-02-23T03:52:44;5.45;;;2.20;;
17595;SDS011;8916;47.086;15.920;2024-02-23T03:55:14;2.92;;;1.45;;
17595;SDS011;8916;47.086;15.920;2024-02-23T03:57:43;3.50;;;1.70;;
17595;SDS011;8916;47.086;15.920;2024-02-23T04:00:14;3.05;;;1.40;;
17595;SDS011;8916;47.086;15.920;2024-02-23T04:02:43;2.90;;;1.58;;
17595;SDS011;8916;47.086;15.920;2024-02-23T04:05:12;2.20;;;1.20;;
17595;SDS011;8916;47.086;15.920;2024-02-23T04:07:41;2.10;;;1.58;;
17595;SDS011;8916;47.086;15.920;2024-02-23T04:10:10;2.25;;;1.48;;
17595;SDS011;8916;47.086;15.920;2024-02-23T04:12:45;1.83;;;1.10;;
17595;SDS011;8916;47.086;15.920;2024-02-23T04:15:14;3.15;;;0.60;;
17595;SDS011;8916;47.086;15.920;2024-02-23T04:17:45;0.43;;;0.43;;
17595;SDS011;8916;47.086;15.920;2024-02-23T04:20:14;4.68;;;0.90;;
17595;SDS011;8916;47.086;15.920;2024-02-23T04:22:48;2.42;;;0.77;;
17595;SDS011;8916;47.086;15.920;2024-02-23T04:25:17;0.77;;;0.77;;
17595;SDS011;8916;47.086;15.920;2024-02-23T04:27:47;1.13;;;0.98;;
17595;SDS011;8916;47.086;15.920;2024-02-23T04:30:16;1.25;;;0.60;;
17595;SDS011;8916;47.086;15.920;2024-02-23T04:32:46;1.83;;;0.95;;
17595;SDS011;8916;47.086;15.920;2024-02-23T04:35:15;0.93;;;0.80;;
17595;SDS011;8916;47.086;15.920;2024-02-23T04:37:44;1.90;;;0.90;;
17595;SDS011;8916;47.086;15.920;2024-02-23T04:40:14;1.77;;;1.15;;
17595;SDS011;8916;47.086;15.920;2024-02-23T04:42:43;5.30;;;1.25;;
17595;SDS011;8916;47.086;15.920;2024-02-23T04:45:16;4.82;;;1.35;;
17595;SDS011;8916;47.086;15.920;2024-02-23T04:47:45;1.00;;;0.77;;
17595;SDS011;8916;47.086;15.920;2024-02-23T04:50:15;1.67;;;1.00;;
17595;SDS011;8916;47.086;15.920;2024-02-23T04:52:44;2.80;;;1.30;;
17595;SDS011;8916;47.086;15.920;2024-02-23T04:55:13;4.53;;;1.88;;
17595;SDS011;8916;47.086;15.920;2024-02-23T04:57:42;2.65;;;1.45;;
17595;SDS011;8916;47.086;15.920;2024-02-23T05:00:11;1.98;;;1.50;;
17595;SDS011;8916;47.086;15.920;2024-02-23T05:02:42;2.65;;;1.50;;
17595;SDS011;8916;47.086;15.920;2024-02-23T05:05:11;1.60;;;1.20;;
17595;SDS011;8916;47.086;15.920;2024-02-23T05:07:40;2.50;;;1.65;;
17595;SDS011;8916;47.086;15.920;2024-02-23T05:10:09;5.95;;;1.45;;
17595;SDS011;8916;47.086;15.920;2024-02-23T05:12:38;3.72;;;1.75;;
17595;SDS011;8916;47.086;15.920;2024-02-23T05:15:08;2.20;;;1.50;;
17595;SDS011;8916;47.086;15.920;2024-02-23T05:17:37;3.55;;;1.88;;
17595;SDS011;8916;47.086;15.920;2024-02-23T05:20:08;4.43;;;2.33;;
17595;SDS011;8916;47.086;15.920;2024-02-23T05:22:39;4.78;;;1.70;;
17595;SDS011;8916;47.086;15.920;2024-02-23T05:25:08;1.88;;;1.30;;
17595;SDS011;8916;47.086;15.920;2024-02-23T05:27:37;1.90;;;1.55;;
17595;SDS011;8916;47.086;15.920;2024-02-23T05:30:07;4.25;;;1.52;;
17595;SDS011;8916;47.086;15.920;2024-02-23T05:32:37;4.53;;;1.83;;
17595;SDS011;8916;47.086;15.920;2024-02-23T05:35:08;1.92;;;1.38;;
17595;SDS011;8916;47.086;15.920;2024-02-23T05:37:37;5.28;;;1.67;;
17595;SDS011;8916;47.086;15.920;2024-02-23T05:40:06;2.97;;;1.67;;
17595;SDS011;8916;47.086;15.920;2024-02-23T05:42:37;1.95;;;1.75;;
17595;SDS011;8916;47.086;15.920;2024-02-23T05:45:07;5.90;;;2.00;;
17595;SDS011;8916;47.086;15.920;2024-02-23T05:47:37;2.95;;;2.00;;
17595;SDS011;8916;47.086;15.920;2024-02-23T05:50:14;5.63;;;1.98;;
17595;SDS011;8916;47.086;15.920;2024-02-23T05:52:43;6.22;;;2.45;;
17595;SDS011;8916;47.086;15.920;2024-02-23T05:55:12;4.32;;;2.10;;
17595;SDS011;8916;47.086;15.920;2024-02-23T05:57:41;4.00;;;2.10;;
17595;SDS011;8916;47.086;15.920;2024-02-23T06:00:11;5.65;;;2.10;;
17595;SDS011;8916;47.086;15.920;2024-02-23T06:02:43;7.18;;;3.60;;
17595;SDS011;8916;47.086;15.920;2024-02-23T06:05:12;4.40;;;2.30;;
17595;SDS011;8916;47.086;15.920;2024-02-23T06:07:42;5.18;;;2.90;;
17595;SDS011;8916;47.086;15.920;2024-02-23T06:10:11;5.50;;;3.05;;
17595;SDS011;8916;47.086;15.920;2024-02-23T06:12:40;4.88;;;3.08;;
17595;SDS011;8916;47.086;15.920;2024-02-23T06:15:09;5.72;;;2.92;;
17595;SDS011;8916;47.086;15.920;2024-02-23T06:17:39;7.95;;;3.10;;
17595;SDS011;8916;47.086;15.920;2024-02-23T06:20:09;6.00;;;3.30;;
17595;SDS011;8916;47.086;15.920;2024-02-23T06:22:39;6.30;;;3.58;;
17595;SDS011;8916;47.086;15.920;2024-02-23T06:25:10;11.20;;;4.30;;
17595;SDS011;8916;47.086;15.920;2024-02-23T06:27:39;5.47;;;3.92;;
17595;SDS011;8916;47.086;15.920;2024-02-23T06:30:08;8.35;;;4.70;;
17595;SDS011;8916;47.086;15.920;2024-02-23T06:32:39;13.07;;;4.47;;
17595;SDS011;8916;47.086;15.920;2024-02-23T06:35:08;6.97;;;3.92;;
17595;SDS011;8916;47.086;15.920;2024-02-23T06:37:39;7.57;;;3.42;;
17595;SDS011;8916;47.086;15.920;2024-02-23T06:40:10;9.18;;;4.57;;
17595;SDS011;8916;47.086;15.920;2024-02-23T06:42:39;5.88;;;4.25;;
17595;SDS011;8916;47.086;15.920;2024-02-23T06:45:08;6.95;;;3.90;;
17595;SDS011;8916;47.086;15.920;2024-02-23T06:47:38;10.65;;;4.55;;
17595;SDS011;8916;47.086;15.920;2024-02-23T06:50:10;9.20;;;5.00;;
17595;SDS011;8916;47.086;15.920;2024-02-23T06:52:39;6.88;;;4.47;;
17595;SDS011;8916;47.086;15.920;2024-02-23T06:55:09;6.68;;;4.35;;
17595;SDS011;8916;47.086;15.920;2024-02-23T06:57:38;6.03;;;3.90;;
17595;SDS011;8916;47.086;15.920;2024-02-23T07:00:09;7.88;;;3.45;;
17595;SDS011;8916;47.086;15.920;2024-02-23T07:02:39;6.53;;;4.25;;
17595;SDS011;8916;47.086;15.920;2024-02-23T07:05:08;9.25;;;4.15;;
17595;SDS011;8916;47.086;15.920;2024-02-23T07:07:37;8.40;;;4.47;;
17595;SDS011;8916;47.086;15.920;2024-02-23T07:10:08;7.40;;;4.40;;
17595;SDS011;8916;47.086;15.920;2024-02-23T07:12:39;7.60;;;4.05;;
17595;SDS011;8916;47.086;15.920;2024-02-23T07:15:08;7.13;;;3.72;;
17595;SDS011;8916;47.086;15.920;2024-02-23T07:17:39;6.88;;;3.85;;
17595;SDS011;8916;47.086;15.920;2024-02-23T07:20:08;9.77;;;4.53;;
17595;SDS011;8916;47.086;15.920;2024-02-23T07:22:39;8.93;;;3.90;;
17595;SDS011;8916;47.086;15.920;2024-02-23T07:25:15;5.28;;;3.67;;
17595;SDS011;8916;47.086;15.920;2024-02-23T07:27:44;6.03;;;3.67;;
17595;SDS011;8916;47.086;15.920;2024-02-23T07:30:13;6.75;;;4.05;;
17595;SDS011;8916;47.086;15.920;2024-02-23T07:32:43;10.20;;;4.72;;
17595;SDS011;8916;47.086;15.920;2024-02-23T07:35:19;7.45;;;4.72;;
17595;SDS011;8916;47.086;15.920;2024-02-23T07:37:48;9.55;;;4.68;;
17595;SDS011;8916;47.086;15.920;2024-02-23T07:40:18;6.45;;;4.40;;
17595;SDS011;8916;47.086;15.920;2024-02-23T07:42:49;14.05;;;5.65;;
17595;SDS011;8916;47.086;15.920;2024-02-23T07:45:17;12.10;;;5.40;;
17595;SDS011;8916;47.086;15.920;2024-02-23T07:47:46;10.43;;;5.43;;
17595;SDS011;8916;47.086;15.920;2024-02-23T07:50:16;12.90;;;6.00;;
17595;SDS011;8916;47.086;15.920;2024-02-23T07:52:46;10.52;;;4.55;;
17595;SDS011;8916;47.086;15.920;2024-02-23T07:55:16;12.90;;;5.80;;
17595;SDS011;8916;47.086;15.920;2024-02-23T07:57:46;14.35;;;6.47;;
17595;SDS011;8916;47.086;15.920;2024-02-23T08:00:29;11.75;;;6.82;;
17595;SDS011;8916;47.086;15.920;2024-02-23T08:02:58;15.48;;;5.45;;
17595;SDS011;8916;47.086;15.920;2024-02-23T08:05:27;10.50;;;5.13;;
17595;SDS011;8916;47.086;15.920;2024-02-23T08:08:00;9.95;;;5.40;;
17595;SDS011;8916;47.086;15.920;2024-02-23T08:10:30;11.27;;;5.32;;
17595;SDS011;8916;47.086;15.920;2024-02-23T08:13:04;13.93;;;5.93;;
17595;SDS011;8916;47.086;15.920;2024-02-23T08:15:33;12.50;;;5.55;;
17595;SDS011;8916;47.086;15.920;2024-02-23T08:18:03;15.32;;;6.05;;
17595;SDS011;8916;47.086;15.920;2024-02-23T08:20:33;11.55;;;6.18;;
17595;SDS011;8916;47.086;15.920;2024-02-23T08:23:02;14.68;;;4.93;;
17595;SDS011;8916;47.086;15.920;2024-02-23T08:25:31;12.88;;;4.72;;
17595;SDS011;8916;47.086;15.920;2024-02-23T08:28:00;14.75;;;4.72;;
17595;SDS011;8916;47.086;15.920;2024-02-23T08:30:31;14.70;;;4.75;;
17595;SDS011;8916;47.086;15.920;2024-02-23T08:32:59;11.10;;;4.93;;
17595;SDS011;8916;47.086;15.920;2024-02-23T08:35:29;6.45;;;4.38;;
17595;SDS011;8916;47.086;15.920;2024-02-23T08:37:58;11.80;;;5.00;;
17595;SDS011;8916;47.086;15.920;2024-02-23T08:40:27;7.88;;;5.10;;
17595;SDS011;8916;47.086;15.920;2024-02-23T08:42:56;9.00;;;4.72;;
17595;SDS011;8916;47.086;15.920;2024-02-23T08:45:24;6.38;;;4.57;;
17595;SDS011;8916;47.086;15.920;2024-02-23T08:47:55;10.23;;;4.22;;
17595;SDS011;8916;47.086;15.920;2024-02-23T08:50:24;8.50;;;3.90;;
17595;SDS011;8916;47.086;15.920;2024-02-23T08:52:53;9.95;;;4.53;;
17595;SDS011;8916;47.086;15.920;2024-02-23T08:55:22;9.43;;;3.55;;
17595;SDS011;8916;47.086;15.920;2024-02-23T08:57:51;7.35;;;3.28;;
17595;SDS011;8916;47.086;15.920;2024-02-23T09:00:20;4.40;;;3.30;;
17595;SDS011;8916;47.086;15.920;2024-02-23T09:02:49;5.95;;;3.38;;
17595;SDS011;8916;47.086;15.920;2024-02-23T09:05:20;8.05;;;3.65;;
17595;SDS011;8916;47.086;15.920;2024-02-23T09:07:49;5.85;;;3.25;;
17595;SDS011;8916;47.086;15.920;2024-02-23T09:10:18;6.32;;;3.03;;
17595;SDS011;8916;47.086;15.920;2024-02-23T09:12:47;6.63;;;3.40;;
17595;SDS011;8916;47.086;15.920;2024-02-23T09:15:16;7.60;;;4.22;;
17595;SDS011;8916;47.086;15.920;2024-02-23T09:17:45;7.95;;;3.83;;
17595;SDS011;8916;47.086;15.920;2024-02-23T09:20:14;6.20;;;3.17;;
17595;SDS011;8916;47.086;15.920;2024-02-23T09:22:46;5.68;;;3.03;;
17595;SDS011;8916;47.086;15.920;2024-02-23T09:25:15;6.65;;;3.28;;
17595;SDS011;8916;47.086;15.920;2024-02-23T09:27:44;6.78;;;3.25;;
17595;SDS011;8916;47.086;15.920;2024-02-23T09:30:13;4.60;;;2.97;;
17595;SDS011;8916;47.086;15.920;2024-02-23T09:32:43;7.00;;;3.28;;
17595;SDS011;8916;47.086;15.920;2024-02-23T09:35:12;4.05;;;2.78;;
17595;SDS011;8916;47.086;15.920;2024-02-23T09:37:42;9.40;;;3.05;;
17595;SDS011;8916;47.086;15.920;2024-02-23T09:40:12;6.00;;;2.88;;
17595;SDS011;8916;47.086;15.920;2024-02-23T09:42:43;7.60;;;2.72;;
17595;SDS011;8916;47.086;15.920;2024-02-23T09:45:21;6.03;;;2.67;;
17595;SDS011;8916;47.086;15.920;2024-02-23T09:47:50;9.45;;;3.25;;
17595;SDS011;8916;47.086;15.920;2024-02-23T09:50:21;7.95;;;3.20;;
17595;SDS011;8916;47.086;15.920;2024-02-23T09:52:52;7.22;;;3.33;;
17595;SDS011;8916;47.086;15.920;2024-02-23T09:55:23;8.25;;;2.88;;
17595;SDS011;8916;47.086;15.920;2024-02-23T09:57:52;5.80;;;3.00;;
17595;SDS011;8916;47.086;15.920;2024-02-23T10:00:27;5.55;;;2.80;;
17595;SDS011;8916;47.086;15.920;2024-02-23T10:02:57;6.35;;;2.92;;
17595;SDS011;8916;47.086;15.920;2024-02-23T10:05:29;5.13;;;3.00;;
17595;SDS011;8916;47.086;15.920;2024-02-23T10:08:04;8.93;;;3.15;;
17595;SDS011;8916;47.086;15.920;2024-02-23T10:10:35;13.57;;;3.70;;
17595;SDS011;8916;47.086;15.920;2024-02-23T10:13:06;4.78;;;3.20;;
17595;SDS011;8916;47.086;15.920;2024-02-23T10:15:35;8.05;;;2.88;;
17595;SDS011;8916;47.086;15.920;2024-02-23T10:18:06;4.30;;;2.53;;
17595;SDS011;8916;47.086;15.920;2024-02-23T10:20:35;7.20;;;3.10;;
17595;SDS011;8916;47.086;15.920;2024-02-23T10:23:07;6.43;;;2.88;;
17595;SDS011;8916;47.086;15.920;2024-02-23T10:25:38;5.15;;;2.80;;
17595;SDS011;8916;47.086;15.920;2024-02-23T10:28:07;5.30;;;2.85;;
17595;SDS011;8916;47.086;15.920;2024-02-23T10:30:37;4.53;;;2.90;;
17595;SDS011;8916;47.086;15.920;2024-02-23T10:33:06;4.72;;;2.83;;
17595;SDS011;8916;47.086;15.920;2024-02-23T10:35:38;8.13;;;3.20;;
17595;SDS011;8916;47.086;15.920;2024-02-23T10:38:08;5.80;;;3.08;;
17595;SDS011;8916;47.086;15.920;2024-02-23T10:40:39;5.80;;;3.05;;
17595;SDS011;8916;47.086;15.920;2024-02-23T10:43:11;5.30;;;2.92;;
17595;SDS011;8916;47.086;15.920;2024-02-23T10:45:45;6.78;;;3.17;;
17595;SDS011;8916;47.086;15.920;2024-02-23T10:48:15;6.50;;;3.20;;
17595;SDS011;8916;47.086;15.920;2024-02-23T10:50:45;7.55;;;2.95;;
17595;SDS011;8916;47.086;15.920;2024-02-23T10:53:20;5.60;;;3.00;;
17595;SDS011;8916;47.086;15.920;2024-02-23T10:55:52;4.63;;;2.92;;
17595;SDS011;8916;47.086;15.920;2024-02-23T10:58:26;5.55;;;3.28;;
17595;SDS011;8916;47.086;15.920;2024-02-23T11:00:57;5.85;;;2.83;;
17595;SDS011;8916;47.086;15.920;2024-02-23T11:03:30;8.68;;;3.63;;
17595;SDS011;8916;47.086;15.920;2024-02-23T11:06:01;5.70;;;2.70;;
17595;SDS011;8916;47.086;15.920;2024-02-23T11:08:32;7.78;;;3.08;;
17595;SDS011;8916;47.086;15.920;2024-02-23T11:11:08;8.00;;;3.13;;
17595;SDS011;8916;47.086;15.920;2024-02-23T11:13:38;5.13;;;3.30;;
17595;SDS011;8916;47.086;15.920;2024-02-23T11:16:08;9.93;;;3.70;;
17595;SDS011;8916;47.086;15.920;2024-02-23T11:18:38;5.90;;;3.47;;
17595;SDS011;8916;47.086;15.920;2024-02-23T11:21:09;7.78;;;3.47;;
17595;SDS011;8916;47.086;15.920;2024-02-23T11:23:42;7.95;;;3.90;;
17595;SDS011;8916;47.086;15.920;2024-02-23T11:26:14;8.93;;;5.05;;
17595;SDS011;8916;47.086;15.920;2024-02-23T11:28:43;8.02;;;3.30;;
17595;SDS011;8916;47.086;15.920;2024-02-23T11:31:18;4.70;;;2.95;;
17595;SDS011;8916;47.086;15.920;2024-02-23T11:33:49;4.05;;;2.17;;
17595;SDS011;8916;47.086;15.920;2024-02-23T11:36:22;5.93;;;2.92;;
17595;SDS011;8916;47.086;15.920;2024-02-23T11:38:52;4.20;;;2.15;;
17595;SDS011;8916;47.086;15.920;2024-02-23T11:41:24;3.90;;;2.25;;
17595;SDS011;8916;47.086;15.920;2024-02-23T11:43:55;3.67;;;2.00;;
17595;SDS011;8916;47.086;15.920;2024-02-23T11:46:25;3.40;;;1.80;;
17595;SDS011;8916;47.086;15.920;2024-02-23T11:48:55;2.67;;;1.58;;
17595;SDS011;8916;47.086;15.920;2024-02-23T11:51:24;3.80;;;2.22;;
17595;SDS011;8916;47.086;15.920;2024-02-23T11:53:56;2.38;;;1.60;;
17595;SDS011;8916;47.086;15.920;2024-02-23T11:56:28;2.50;;;1.60;;
17595;SDS011;8916;47.086;15.920;2024-02-23T11:58:58;2.55;;;1.70;;
17595;SDS011;8916;47.086;15.920;2024-02-23T12:01:28;5.03;;;1.77;;
17595;SDS011;8916;47.086;15.920;2024-02-23T12:03:59;2.92;;;1.70;;
17595;SDS011;8916;47.086;15.920;2024-02-23T12:06:29;2.45;;;1.33;;
17595;SDS011;8916;47.086;15.920;2024-02-23T12:08:59;2.67;;;1.60;;
17595;SDS011;8916;47.086;15.920;2024-02-23T12:11:30;4.70;;;1.80;;
17595;SDS011;8916;47.086;15.920;2024-02-23T12:13:59;3.17;;;1.40;;
17595;SDS011;8916;47.086;15.920;2024-02-23T12:16:29;2.65;;;1.60;;
17595;SDS011;8916;47.086;15.920;2024-02-23T12:18:58;2.67;;;1.75;;
17595;SDS011;8916;47.086;15.920;2024-02-23T12:21:29;3.00;;;1.80;;
17595;SDS011;8916;47.086;15.920;2024-02-23T12:23:58;2.53;;;1.40;;
17595;SDS011;8916;47.086;15.920;2024-02-23T12:26:27;2.03;;;1.38;;
17595;SDS011;8916;47.086;15.920;2024-02-23T12:29:01;3.80;;;1.83;;
17595;SDS011;8916;47.086;15.920;2024-02-23T12:31:31;3.40;;;1.98;;
17595;SDS011;8916;47.086;15.920;2024-02-23T12:34:01;3.83;;;2.00;;
17595;SDS011;8916;47.086;15.920;2024-02-23T12:36:30;3.47;;;1.80;;
17595;SDS011;8916;47.086;15.920;2024-02-23T12:39:02;2.35;;;1.50;;
17595;SDS011;8916;47.086;15.920;2024-02-23T12:41:31;3.28;;;1.88;;
17595;SDS011;8916;47.086;15.920;2024-02-23T12:44:02;3.53;;;1.77;;
17595;SDS011;8916;47.086;15.920;2024-02-23T12:46:31;4.47;;;1.40;;
17595;SDS011;8916;47.086;15.920;2024-02-23T12:49:00;3.92;;;1.90;;
17595;SDS011;8916;47.086;15.920;2024-02-23T12:51:29;7.15;;;2.88;;
17595;SDS011;8916;47.086;15.920;2024-02-23T12:53:59;5.50;;;2.80;;
17595;SDS011;8916;47.086;15.920;2024-02-23T12:56:28;4.53;;;2.80;;
17595;SDS011;8916;47.086;15.920;2024-02-23T12:58:58;3.45;;;1.92;;
17595;SDS011;8916;47.086;15.920;2024-02-23T13:01:28;4.22;;;2.10;;
17595;SDS011;8916;47.086;15.920;2024-02-23T13:03:59;4.03;;;2.08;;
17595;SDS011;8916;47.086;15.920;2024-02-23T13:06:28;4.93;;;2.50;;
17595;SDS011;8916;47.086;15.920;2024-02-23T13:08:57;9.75;;;3.28;;
17595;SDS011;8916;47.086;15.920;2024-02-23T13:11:26;10.00;;;3.95;;
17595;SDS011;8916;47.086;15.920;2024-02-23T13:13:55;23.10;;;10.32;;
17595;SDS011;8916;47.086;15.920;2024-02-23T13:16:24;28.50;;;12.70;;
17595;SDS011;8916;47.086;15.920;2024-02-23T13:18:55;19.27;;;8.88;;
17595;SDS011;8916;47.086;15.920;2024-02-23T13:21:24;18.33;;;9.02;;
17595;SDS011;8916;47.086;15.920;2024-02-23T13:23:53;10.40;;;4.82;;
17595;SDS011;8916;47.086;15.920;2024-02-23T13:26:22;12.60;;;4.28;;
17595;SDS011;8916;47.086;15.920;2024-02-23T13:28:51;6.47;;;3.55;;
17595;SDS011;8916;47.086;15.920;2024-02-23T13:31:20;6.88;;;3.30;;
17595;SDS011;8916;47.086;15.920;2024-02-23T13:33:49;5.05;;;3.22;;
17595;SDS011;8916;47.086;15.920;2024-02-23T13:36:19;3.85;;;2.78;;
17595;SDS011;8916;47.086;15.920;2024-02-23T13:38:48;4.53;;;2.95;;
17595;SDS011;8916;47.086;15.920;2024-02-23T13:41:18;4.38;;;2.80;;
17595;SDS011;8916;47.086;15.920;2024-02-23T13:43:47;5.95;;;2.67;;
17595;SDS011;8916;47.086;15.920;2024-02-23T13:46:16;6.05;;;3.45;;
17595;SDS011;8916;47.086;15.920;2024-02-23T13:48:45;7.78;;;3.35;;
17595;SDS011;8916;47.086;15.920;2024-02-23T13:51:14;6.20;;;3.20;;
17595;SDS011;8916;47.086;15.920;2024-02-23T13:53:45;8.30;;;4.05;;
17595;SDS011;8916;47.086;15.920;2024-02-23T13:56:14;8.35;;;4.13;;
17595;SDS011;8916;47.086;15.920;2024-02-23T13:58:43;7.40;;;3.10;;
17595;SDS011;8916;47.086;15.920;2024-02-23T14:01:12;6.63;;;3.35;;
17595;SDS011;8916;47.086;15.920;2024-02-23T14:03:41;7.03;;;2.88;;
17595;SDS011;8916;47.086;15.920;2024-02-23T14:06:10;5.00;;;2.55;;
17595;SDS011;8916;47.086;15.920;2024-02-23T14:08:39;5.45;;;2.50;;
17595;SDS011;8916;47.086;15.920;2024-02-23T14:11:11;6.93;;;2.92;;
17595;SDS011;8916;47.086;15.920;2024-02-23T14:13:40;4.85;;;2.63;;
17595;SDS011;8916;47.086;15.920;2024-02-23T14:16:09;4.85;;;2.65;;
17595;SDS011;8916;47.086;15.920;2024-02-23T14:18:38;5.80;;;2.42;;
17595;SDS011;8916;47.086;15.920;2024-02-23T14:21:09;7.35;;;2.65;;
17595;SDS011;8916;47.086;15.920;2024-02-23T14:23:41;12.18;;;3.80;;
17595;SDS011;8916;47.086;15.920;2024-02-23T14:26:11;7.65;;;4.03;;
17595;SDS011;8916;47.086;15.920;2024-02-23T14:28:40;7.43;;;3.75;;
17595;SDS011;8916;47.086;15.920;2024-02-23T14:31:09;11.55;;;4.78;;
17595;SDS011;8916;47.086;15.920;2024-02-23T14:33:38;14.30;;;6.45;;
17595;SDS011;8916;47.086;15.920;2024-02-23T14:36:09;13.93;;;5.68;;
17595;SDS011;8916;47.086;15.920;2024-02-23T14:38:38;10.57;;;5.38;;
17595;SDS011;8916;47.086;15.920;2024-02-23T14:41:07;12.18;;;4.82;;
17595;SDS011;8916;47.086;15.920;2024-02-23T14:43:38;8.68;;;4.05;;
17595;SDS011;8916;47.086;15.920;2024-02-23T14:46:07;7.10;;;3.67;;
17595;SDS011;8916;47.086;15.920;2024-02-23T14:48:36;8.50;;;4.07;;
17595;SDS011;8916;47.086;15.920;2024-02-23T14:51:05;6.82;;;3.60;;
17595;SDS011;8916;47.086;15.920;2024-02-23T14:53:36;8.07;;;3.50;;
17595;SDS011;8916;47.086;15.920;2024-02-23T14:56:05;4.47;;;2.70;;
17595;SDS011;8916;47.086;15.920;2024-02-23T14:58:34;4.32;;;2.38;;
17595;SDS011;8916;47.086;15.920;2024-02-23T15:01:05;6.10;;;2.63;;